sensor_id;sensor_type;location;lat;lon;timestamp;P1;durP1;ratioP1;P2;durP2;ratioP2
30062;SDS011;16889;67.864;24.990;2023-07-31T00:01:46;6.82;;;3.58;;
30062;SDS011;16889;67.864;24.990;2023-07-31T00:06:32;5.18;;;4.13;;
30062;SDS011;16889;67.864;24.990;2023-07-31T00:11:18;5.28;;;4.07;;
30062;SDS011;16889;67.864;24.990;2023-07-31T00:16:04;6.95;;;3.97;;
30062;SDS011;16889;67.864;24.990;2023-07-31T00:20:50;5.00;;;4.40;;
30062;SDS011;16889;67.864;24.990;2023-07-31T00:25:36;9.43;;;4.97;;
30062;SDS011;16889;67.864;24.990;2023-07-31T00:30:22;7.30;;;4.10;;
30062;SDS011;16889;67.864;24.990;2023-07-31T00:39:56;4.53;;;3.78;;
30062;SDS011;16889;67.864;24.990;2023-07-31T00:44:41;15.55;;;4.68;;
30062;SDS011;16889;67.864;24.990;2023-07-31T00:49:27;4.93;;;4.38;;
30062;SDS011;16889;67.864;24.990;2023-07-31T00:54:13;5.65;;;4.93;;
30062;SDS011;16889;67.864;24.990;2023-07-31T00:58:59;6.35;;;5.22;;
30062;SDS011;16889;67.864;24.990;2023-07-31T01:03:45;4.15;;;3.75;;
30062;SDS011;16889;67.864;24.990;2023-07-31T01:08:42;4.68;;;2.42;;
30062;SDS011;16889;67.864;24.990;2023-07-31T01:13:36;4.10;;;3.70;;
30062;SDS011;16889;67.864;24.990;2023-07-31T01:18:23;5.68;;;4.25;;
30062;SDS011;16889;67.864;24.990;2023-07-31T01:28:39;2.90;;;2.60;;
30062;SDS011;16889;67.864;24.990;2023-07-31T01:33:28;11.80;;;4.18;;
30062;SDS011;16889;67.864;24.990;2023-07-31T01:38:15;9.50;;;4.32;;
30062;SDS011;16889;67.864;24.990;2023-07-31T01:43:05;6.68;;;4.60;;
30062;SDS011;16889;67.864;24.990;2023-07-31T01:47:51;23.92;;;3.42;;
30062;SDS011;16889;67.864;24.990;2023-07-31T01:52:37;10.63;;;3.20;;
30062;SDS011;16889;67.864;24.990;2023-07-31T01:57:23;17.80;;;3.70;;
30062;SDS011;16889;67.864;24.990;2023-07-31T02:02:09;8.15;;;3.58;;
30062;SDS011;16889;67.864;24.990;2023-07-31T02:06:55;4.10;;;3.70;;
30062;SDS011;16889;67.864;24.990;2023-07-31T02:11:41;7.35;;;3.92;;
30062;SDS011;16889;67.864;24.990;2023-07-31T02:16:27;17.10;;;4.30;;
30062;SDS011;16889;67.864;24.990;2023-07-31T02:21:13;8.10;;;4.60;;
30062;SDS011;16889;67.864;24.990;2023-07-31T02:25:59;10.23;;;4.10;;
30062;SDS011;16889;67.864;24.990;2023-07-31T02:30:45;17.92;;;4.22;;
30062;SDS011;16889;67.864;24.990;2023-07-31T02:35:31;15.20;;;4.50;;
30062;SDS011;16889;67.864;24.990;2023-07-31T02:40:17;17.38;;;4.25;;
30062;SDS011;16889;67.864;24.990;2023-07-31T02:45:03;4.32;;;3.85;;
30062;SDS011;16889;67.864;24.990;2023-07-31T02:49:49;11.02;;;4.45;;
30062;SDS011;16889;67.864;24.990;2023-07-31T02:54:35;48.20;;;4.93;;
30062;SDS011;16889;67.864;24.990;2023-07-31T02:59:21;26.00;;;4.00;;
30062;SDS011;16889;67.864;24.990;2023-07-31T03:04:07;21.10;;;4.30;;
30062;SDS011;16889;67.864;24.990;2023-07-31T03:08:53;3.80;;;3.20;;
30062;SDS011;16889;67.864;24.990;2023-07-31T03:13:39;4.03;;;3.50;;
30062;SDS011;16889;67.864;24.990;2023-07-31T03:18:25;103.95;;;5.10;;
30062;SDS011;16889;67.864;24.990;2023-07-31T03:23:11;31.45;;;3.63;;
30062;SDS011;16889;67.864;24.990;2023-07-31T03:27:57;4.35;;;2.60;;
30062;SDS011;16889;67.864;24.990;2023-07-31T03:32:43;37.78;;;3.90;;
30062;SDS011;16889;67.864;24.990;2023-07-31T03:37:29;20.42;;;3.70;;
30062;SDS011;16889;67.864;24.990;2023-07-31T03:42:15;14.20;;;3.67;;
30062;SDS011;16889;67.864;24.990;2023-07-31T03:47:01;32.65;;;4.35;;
30062;SDS011;16889;67.864;24.990;2023-07-31T03:51:47;4.82;;;3.83;;
30062;SDS011;16889;67.864;24.990;2023-07-31T03:56:33;22.55;;;4.78;;
30062;SDS011;16889;67.864;24.990;2023-07-31T04:01:19;9.32;;;4.15;;
30062;SDS011;16889;67.864;24.990;2023-07-31T04:06:05;6.40;;;4.32;;
30062;SDS011;16889;67.864;24.990;2023-07-31T04:10:52;4.50;;;3.90;;
30062;SDS011;16889;67.864;24.990;2023-07-31T04:15:38;4.18;;;3.50;;
30062;SDS011;16889;67.864;24.990;2023-07-31T04:20:24;6.60;;;3.40;;
30062;SDS011;16889;67.864;24.990;2023-07-31T04:25:10;4.10;;;3.60;;
30062;SDS011;16889;67.864;24.990;2023-07-31T04:29:56;3.92;;;3.35;;
30062;SDS011;16889;67.864;24.990;2023-07-31T04:34:42;3.30;;;3.00;;
30062;SDS011;16889;67.864;24.990;2023-07-31T04:39:28;3.33;;;2.95;;
30062;SDS011;16889;67.864;24.990;2023-07-31T04:44:14;11.13;;;4.00;;
30062;SDS011;16889;67.864;24.990;2023-07-31T04:49:00;5.43;;;4.93;;
30062;SDS011;16889;67.864;24.990;2023-07-31T04:53:46;7.40;;;6.00;;
30062;SDS011;16889;67.864;24.990;2023-07-31T04:58:32;5.60;;;5.03;;
30062;SDS011;16889;67.864;24.990;2023-07-31T05:03:18;5.88;;;5.28;;
30062;SDS011;16889;67.864;24.990;2023-07-31T05:08:04;6.25;;;5.65;;
30062;SDS011;16889;67.864;24.990;2023-07-31T05:12:50;6.30;;;5.63;;
30062;SDS011;16889;67.864;24.990;2023-07-31T05:17:36;6.68;;;5.90;;
30062;SDS011;16889;67.864;24.990;2023-07-31T05:22:22;5.95;;;5.18;;
30062;SDS011;16889;67.864;24.990;2023-07-31T05:27:08;7.57;;;4.80;;
30062;SDS011;16889;67.864;24.990;2023-07-31T05:31:54;6.35;;;4.65;;
30062;SDS011;16889;67.864;24.990;2023-07-31T05:36:40;7.95;;;4.65;;
30062;SDS011;16889;67.864;24.990;2023-07-31T05:41:26;6.78;;;5.50;;
30062;SDS011;16889;67.864;24.990;2023-07-31T05:46:12;6.28;;;5.05;;
30062;SDS011;16889;67.864;24.990;2023-07-31T05:50:58;6.93;;;6.22;;
30062;SDS011;16889;67.864;24.990;2023-07-31T05:55:44;7.18;;;5.55;;
30062;SDS011;16889;67.864;24.990;2023-07-31T06:00:30;6.15;;;5.55;;
30062;SDS011;16889;67.864;24.990;2023-07-31T06:05:17;5.82;;;5.22;;
30062;SDS011;16889;67.864;24.990;2023-07-31T06:10:03;5.50;;;4.15;;
30062;SDS011;16889;67.864;24.990;2023-07-31T06:14:50;4.60;;;3.67;;
30062;SDS011;16889;67.864;24.990;2023-07-31T06:19:36;3.60;;;3.08;;
30062;SDS011;16889;67.864;24.990;2023-07-31T06:24:22;3.47;;;2.72;;
30062;SDS011;16889;67.864;24.990;2023-07-31T06:29:08;3.75;;;3.40;;
30062;SDS011;16889;67.864;24.990;2023-07-31T06:33:55;3.35;;;2.60;;
30062;SDS011;16889;67.864;24.990;2023-07-31T06:38:41;3.95;;;2.45;;
30062;SDS011;16889;67.864;24.990;2023-07-31T06:43:27;2.63;;;2.20;;
30062;SDS011;16889;67.864;24.990;2023-07-31T06:48:13;2.70;;;2.03;;
30062;SDS011;16889;67.864;24.990;2023-07-31T06:52:59;2.28;;;2.03;;
30062;SDS011;16889;67.864;24.990;2023-07-31T06:57:48;2.88;;;2.33;;
30062;SDS011;16889;67.864;24.990;2023-07-31T07:02:35;1.92;;;1.83;;
30062;SDS011;16889;67.864;24.990;2023-07-31T07:07:21;4.13;;;2.08;;
30062;SDS011;16889;67.864;24.990;2023-07-31T07:12:07;3.28;;;1.42;;
30062;SDS011;16889;67.864;24.990;2023-07-31T07:16:53;1.60;;;1.38;;
30062;SDS011;16889;67.864;24.990;2023-07-31T07:21:39;3.72;;;1.33;;
30062;SDS011;16889;67.864;24.990;2023-07-31T07:26:25;2.70;;;1.40;;
30062;SDS011;16889;67.864;24.990;2023-07-31T07:31:12;2.35;;;1.40;;
30062;SDS011;16889;67.864;24.990;2023-07-31T07:36:01;1.30;;;1.20;;
30062;SDS011;16889;67.864;24.990;2023-07-31T07:40:47;2.35;;;1.42;;
30062;SDS011;16889;67.864;24.990;2023-07-31T07:45:35;3.53;;;1.40;;
30062;SDS011;16889;67.864;24.990;2023-07-31T07:50:21;2.35;;;1.40;;
30062;SDS011;16889;67.864;24.990;2023-07-31T07:55:07;3.70;;;1.02;;
30062;SDS011;16889;67.864;24.990;2023-07-31T07:59:53;1.92;;;1.30;;
30062;SDS011;16889;67.864;24.990;2023-07-31T08:04:39;1.98;;;1.35;;
30062;SDS011;16889;67.864;24.990;2023-07-31T08:09:25;5.53;;;1.40;;
30062;SDS011;16889;67.864;24.990;2023-07-31T08:14:11;2.55;;;1.20;;
30062;SDS011;16889;67.864;24.990;2023-07-31T08:18:58;1.10;;;1.00;;
30062;SDS011;16889;67.864;24.990;2023-07-31T08:23:44;1.77;;;1.10;;
30062;SDS011;16889;67.864;24.990;2023-07-31T08:28:30;1.20;;;0.93;;
30062;SDS011;16889;67.864;24.990;2023-07-31T08:33:16;3.50;;;1.30;;
30062;SDS011;16889;67.864;24.990;2023-07-31T08:38:02;1.60;;;1.17;;
30062;SDS011;16889;67.864;24.990;2023-07-31T08:42:49;4.88;;;1.20;;
30062;SDS011;16889;67.864;24.990;2023-07-31T08:47:35;1.42;;;1.17;;
30062;SDS011;16889;67.864;24.990;2023-07-31T08:52:21;0.98;;;0.90;;
30062;SDS011;16889;67.864;24.990;2023-07-31T08:57:07;2.40;;;1.00;;
30062;SDS011;16889;67.864;24.990;2023-07-31T09:01:57;1.40;;;0.90;;
30062;SDS011;16889;67.864;24.990;2023-07-31T09:06:47;2.95;;;1.10;;
30062;SDS011;16889;67.864;24.990;2023-07-31T09:11:33;2.95;;;1.15;;
30062;SDS011;16889;67.864;24.990;2023-07-31T09:16:25;4.07;;;1.23;;
30062;SDS011;16889;67.864;24.990;2023-07-31T09:21:15;1.52;;;1.13;;
30062;SDS011;16889;67.864;24.990;2023-07-31T09:26:01;2.08;;;1.20;;
30062;SDS011;16889;67.864;24.990;2023-07-31T09:30:48;1.67;;;1.00;;
30062;SDS011;16889;67.864;24.990;2023-07-31T09:35:35;1.23;;;1.13;;
30062;SDS011;16889;67.864;24.990;2023-07-31T09:40:29;1.30;;;1.00;;
30062;SDS011;16889;67.864;24.990;2023-07-31T09:45:19;1.27;;;1.10;;
30062;SDS011;16889;67.864;24.990;2023-07-31T09:50:07;5.55;;;1.17;;
30062;SDS011;16889;67.864;24.990;2023-07-31T09:54:54;2.25;;;1.15;;
30062;SDS011;16889;67.864;24.990;2023-07-31T09:59:40;1.75;;;1.08;;
30062;SDS011;16889;67.864;24.990;2023-07-31T10:04:27;2.38;;;1.10;;
30062;SDS011;16889;67.864;24.990;2023-07-31T10:09:15;2.30;;;1.10;;
30062;SDS011;16889;67.864;24.990;2023-07-31T10:14:03;1.27;;;1.10;;
30062;SDS011;16889;67.864;24.990;2023-07-31T10:18:50;1.20;;;1.10;;
30062;SDS011;16889;67.864;24.990;2023-07-31T10:23:38;1.17;;;0.95;;
30062;SDS011;16889;67.864;24.990;2023-07-31T10:28:26;2.42;;;0.80;;
30062;SDS011;16889;67.864;24.990;2023-07-31T10:33:12;1.00;;;0.85;;
30062;SDS011;16889;67.864;24.990;2023-07-31T10:38:11;3.50;;;0.80;;
30062;SDS011;16889;67.864;24.990;2023-07-31T10:42:57;0.88;;;0.80;;
30062;SDS011;16889;67.864;24.990;2023-07-31T10:47:44;2.42;;;0.90;;
30062;SDS011;16889;67.864;24.990;2023-07-31T10:52:31;0.60;;;0.60;;
30062;SDS011;16889;67.864;24.990;2023-07-31T10:57:21;1.20;;;0.80;;
30062;SDS011;16889;67.864;24.990;2023-07-31T11:02:07;2.63;;;1.00;;
30062;SDS011;16889;67.864;24.990;2023-07-31T11:07:11;0.90;;;0.60;;
30062;SDS011;16889;67.864;24.990;2023-07-31T11:12:01;3.80;;;0.90;;
30062;SDS011;16889;67.864;24.990;2023-07-31T11:16:49;1.13;;;0.90;;
30062;SDS011;16889;67.864;24.990;2023-07-31T11:21:36;0.95;;;0.80;;
30062;SDS011;16889;67.864;24.990;2023-07-31T11:26:23;1.95;;;0.90;;
30062;SDS011;16889;67.864;24.990;2023-07-31T11:31:10;2.50;;;1.00;;
30062;SDS011;16889;67.864;24.990;2023-07-31T11:35:56;1.17;;;0.98;;
30062;SDS011;16889;67.864;24.990;2023-07-31T11:40:43;1.60;;;0.80;;
30062;SDS011;16889;67.864;24.990;2023-07-31T11:45:30;2.13;;;1.10;;
30062;SDS011;16889;67.864;24.990;2023-07-31T11:50:16;1.35;;;0.95;;
30062;SDS011;16889;67.864;24.990;2023-07-31T11:55:02;1.95;;;0.90;;
30062;SDS011;16889;67.864;24.990;2023-07-31T11:59:49;1.67;;;1.00;;
30062;SDS011;16889;67.864;24.990;2023-07-31T12:04:36;1.83;;;0.80;;
30062;SDS011;16889;67.864;24.990;2023-07-31T12:09:23;2.83;;;1.00;;
30062;SDS011;16889;67.864;24.990;2023-07-31T12:14:24;1.17;;;1.02;;
30062;SDS011;16889;67.864;24.990;2023-07-31T12:19:12;2.47;;;1.17;;
30062;SDS011;16889;67.864;24.990;2023-07-31T12:23:58;1.20;;;1.00;;
30062;SDS011;16889;67.864;24.990;2023-07-31T12:28:44;1.15;;;0.85;;
30062;SDS011;16889;67.864;24.990;2023-07-31T12:33:35;1.67;;;0.90;;
30062;SDS011;16889;67.864;24.990;2023-07-31T12:38:22;1.33;;;0.90;;
30062;SDS011;16889;67.864;24.990;2023-07-31T12:43:08;1.70;;;0.95;;
30062;SDS011;16889;67.864;24.990;2023-07-31T12:47:54;3.08;;;0.85;;
30062;SDS011;16889;67.864;24.990;2023-07-31T12:52:40;2.00;;;0.70;;
30062;SDS011;16889;67.864;24.990;2023-07-31T12:57:26;1.02;;;0.77;;
30062;SDS011;16889;67.864;24.990;2023-07-31T13:02:12;9.93;;;0.90;;
30062;SDS011;16889;67.864;24.990;2023-07-31T13:06:58;1.40;;;0.98;;
30062;SDS011;16889;67.864;24.990;2023-07-31T13:11:44;1.58;;;0.90;;
30062;SDS011;16889;67.864;24.990;2023-07-31T13:16:30;2.75;;;1.10;;
30062;SDS011;16889;67.864;24.990;2023-07-31T13:21:16;3.63;;;1.00;;
30062;SDS011;16889;67.864;24.990;2023-07-31T13:26:02;2.38;;;0.80;;
30062;SDS011;16889;67.864;24.990;2023-07-31T13:30:48;3.38;;;1.27;;
30062;SDS011;16889;67.864;24.990;2023-07-31T13:35:34;1.63;;;0.80;;
30062;SDS011;16889;67.864;24.990;2023-07-31T13:40:20;2.58;;;0.80;;
30062;SDS011;16889;67.864;24.990;2023-07-31T13:45:06;2.00;;;0.77;;
30062;SDS011;16889;67.864;24.990;2023-07-31T13:49:53;1.77;;;0.80;;
30062;SDS011;16889;67.864;24.990;2023-07-31T13:54:39;1.40;;;0.88;;
30062;SDS011;16889;67.864;24.990;2023-07-31T13:59:25;3.35;;;0.82;;
30062;SDS011;16889;67.864;24.990;2023-07-31T14:04:11;1.52;;;0.55;;
30062;SDS011;16889;67.864;24.990;2023-07-31T14:08:57;2.40;;;0.77;;
30062;SDS011;16889;67.864;24.990;2023-07-31T14:13:43;4.35;;;0.85;;
30062;SDS011;16889;67.864;24.990;2023-07-31T14:18:29;1.88;;;0.85;;
30062;SDS011;16889;67.864;24.990;2023-07-31T14:23:15;1.85;;;0.63;;
30062;SDS011;16889;67.864;24.990;2023-07-31T14:28:01;5.10;;;0.73;;
30062;SDS011;16889;67.864;24.990;2023-07-31T14:32:47;1.70;;;0.65;;
30062;SDS011;16889;67.864;24.990;2023-07-31T14:37:39;1.83;;;0.70;;
30062;SDS011;16889;67.864;24.990;2023-07-31T14:42:26;0.95;;;0.70;;
30062;SDS011;16889;67.864;24.990;2023-07-31T14:47:12;0.90;;;0.60;;
30062;SDS011;16889;67.864;24.990;2023-07-31T14:51:58;0.88;;;0.60;;
30062;SDS011;16889;67.864;24.990;2023-07-31T14:56:44;2.67;;;0.50;;
30062;SDS011;16889;67.864;24.990;2023-07-31T15:01:30;4.28;;;0.60;;
30062;SDS011;16889;67.864;24.990;2023-07-31T15:06:16;2.08;;;0.50;;
30062;SDS011;16889;67.864;24.990;2023-07-31T15:11:02;0.60;;;0.50;;
30062;SDS011;16889;67.864;24.990;2023-07-31T15:15:48;1.75;;;0.70;;
30062;SDS011;16889;67.864;24.990;2023-07-31T15:20:34;2.00;;;0.60;;
30062;SDS011;16889;67.864;24.990;2023-07-31T15:25:20;0.75;;;0.60;;
30062;SDS011;16889;67.864;24.990;2023-07-31T15:30:06;2.88;;;0.60;;
30062;SDS011;16889;67.864;24.990;2023-07-31T15:34:53;0.60;;;0.60;;
30062;SDS011;16889;67.864;24.990;2023-07-31T15:39:41;1.27;;;0.50;;
30062;SDS011;16889;67.864;24.990;2023-07-31T15:44:27;0.50;;;0.50;;
30062;SDS011;16889;67.864;24.990;2023-07-31T15:49:13;0.95;;;0.60;;
30062;SDS011;16889;67.864;24.990;2023-07-31T15:53:59;0.80;;;0.50;;
30062;SDS011;16889;67.864;24.990;2023-07-31T15:58:45;0.50;;;0.50;;
30062;SDS011;16889;67.864;24.990;2023-07-31T16:03:31;0.65;;;0.52;;
30062;SDS011;16889;67.864;24.990;2023-07-31T16:08:17;1.48;;;0.70;;
30062;SDS011;16889;67.864;24.990;2023-07-31T16:13:03;1.95;;;0.60;;
30062;SDS011;16889;67.864;24.990;2023-07-31T16:17:49;2.72;;;0.63;;
30062;SDS011;16889;67.864;24.990;2023-07-31T16:22:35;0.80;;;0.52;;
30062;SDS011;16889;67.864;24.990;2023-07-31T16:27:21;1.52;;;0.52;;
30062;SDS011;16889;67.864;24.990;2023-07-31T16:32:09;1.35;;;0.50;;
30062;SDS011;16889;67.864;24.990;2023-07-31T16:36:55;0.50;;;0.50;;
30062;SDS011;16889;67.864;24.990;2023-07-31T16:41:41;1.15;;;0.50;;
30062;SDS011;16889;67.864;24.990;2023-07-31T16:46:27;1.35;;;0.65;;
30062;SDS011;16889;67.864;24.990;2023-07-31T16:51:15;0.77;;;0.60;;
30062;SDS011;16889;67.864;24.990;2023-07-31T16:56:01;1.00;;;0.50;;
30062;SDS011;16889;67.864;24.990;2023-07-31T17:00:47;2.80;;;0.60;;
30062;SDS011;16889;67.864;24.990;2023-07-31T17:05:33;1.23;;;0.60;;
30062;SDS011;16889;67.864;24.990;2023-07-31T17:10:20;3.10;;;0.80;;
30062;SDS011;16889;67.864;24.990;2023-07-31T17:15:06;3.53;;;1.00;;
30062;SDS011;16889;67.864;24.990;2023-07-31T17:19:53;1.10;;;0.60;;
30062;SDS011;16889;67.864;24.990;2023-07-31T17:24:39;1.13;;;0.70;;
30062;SDS011;16889;67.864;24.990;2023-07-31T17:29:28;0.60;;;0.60;;
30062;SDS011;16889;67.864;24.990;2023-07-31T17:34:17;2.10;;;0.73;;
30062;SDS011;16889;67.864;24.990;2023-07-31T17:39:03;0.93;;;0.70;;
30062;SDS011;16889;67.864;24.990;2023-07-31T17:43:49;1.25;;;0.63;;
30062;SDS011;16889;67.864;24.990;2023-07-31T17:48:35;2.33;;;0.93;;
30062;SDS011;16889;67.864;24.990;2023-07-31T17:53:23;0.75;;;0.63;;
30062;SDS011;16889;67.864;24.990;2023-07-31T17:58:09;1.90;;;0.60;;
30062;SDS011;16889;67.864;24.990;2023-07-31T18:02:55;3.33;;;0.82;;
30062;SDS011;16889;67.864;24.990;2023-07-31T18:07:41;0.90;;;0.70;;
30062;SDS011;16889;67.864;24.990;2023-07-31T18:12:27;0.80;;;0.70;;
30062;SDS011;16889;67.864;24.990;2023-07-31T18:17:13;1.33;;;0.80;;
30062;SDS011;16889;67.864;24.990;2023-07-31T18:21:59;0.68;;;0.60;;
30062;SDS011;16889;67.864;24.990;2023-07-31T18:26:45;1.00;;;0.70;;
30062;SDS011;16889;67.864;24.990;2023-07-31T18:31:31;2.08;;;0.88;;
30062;SDS011;16889;67.864;24.990;2023-07-31T18:36:17;0.75;;;0.70;;
30062;SDS011;16889;67.864;24.990;2023-07-31T18:41:04;2.03;;;0.70;;
30062;SDS011;16889;67.864;24.990;2023-07-31T18:45:51;1.92;;;0.77;;
30062;SDS011;16889;67.864;24.990;2023-07-31T18:50:40;1.17;;;0.80;;
30062;SDS011;16889;67.864;24.990;2023-07-31T18:55:28;2.35;;;0.68;;
30062;SDS011;16889;67.864;24.990;2023-07-31T19:00:14;1.05;;;0.60;;
30062;SDS011;16889;67.864;24.990;2023-07-31T19:05:00;0.70;;;0.70;;
30062;SDS011;16889;67.864;24.990;2023-07-31T19:09:46;0.95;;;0.80;;
30062;SDS011;16889;67.864;24.990;2023-07-31T19:14:32;1.27;;;0.80;;
30062;SDS011;16889;67.864;24.990;2023-07-31T19:19:19;1.10;;;0.90;;
30062;SDS011;16889;67.864;24.990;2023-07-31T19:24:05;1.83;;;0.90;;
30062;SDS011;16889;67.864;24.990;2023-07-31T19:28:51;1.42;;;1.00;;
30062;SDS011;16889;67.864;24.990;2023-07-31T19:33:37;1.60;;;0.95;;
30062;SDS011;16889;67.864;24.990;2023-07-31T19:38:23;1.83;;;1.20;;
30062;SDS011;16889;67.864;24.990;2023-07-31T19:43:08;1.95;;;1.10;;
30062;SDS011;16889;67.864;24.990;2023-07-31T19:47:54;1.85;;;1.10;;
30062;SDS011;16889;67.864;24.990;2023-07-31T19:52:41;1.63;;;1.42;;
30062;SDS011;16889;67.864;24.990;2023-07-31T19:57:27;1.92;;;1.15;;
30062;SDS011;16889;67.864;24.990;2023-07-31T20:02:13;3.55;;;1.40;;
30062;SDS011;16889;67.864;24.990;2023-07-31T20:07:00;1.58;;;1.38;;
30062;SDS011;16889;67.864;24.990;2023-07-31T20:11:46;1.20;;;1.10;;
30062;SDS011;16889;67.864;24.990;2023-07-31T20:16:32;2.55;;;1.50;;
30062;SDS011;16889;67.864;24.990;2023-07-31T20:21:20;2.22;;;1.33;;
30062;SDS011;16889;67.864;24.990;2023-07-31T20:26:06;2.80;;;1.50;;
30062;SDS011;16889;67.864;24.990;2023-07-31T20:30:53;3.17;;;1.65;;
30062;SDS011;16889;67.864;24.990;2023-07-31T20:35:39;4.22;;;1.80;;
30062;SDS011;16889;67.864;24.990;2023-07-31T20:40:25;5.50;;;1.70;;
30062;SDS011;16889;67.864;24.990;2023-07-31T20:45:11;5.05;;;1.80;;
30062;SDS011;16889;67.864;24.990;2023-07-31T20:49:59;2.63;;;1.73;;
30062;SDS011;16889;67.864;24.990;2023-07-31T20:54:45;4.63;;;1.98;;
30062;SDS011;16889;67.864;24.990;2023-07-31T20:59:31;3.65;;;1.65;;
30062;SDS011;16889;67.864;24.990;2023-07-31T21:04:17;4.72;;;2.00;;
30062;SDS011;16889;67.864;24.990;2023-07-31T21:09:03;3.30;;;2.00;;
30062;SDS011;16889;67.864;24.990;2023-07-31T21:13:49;6.28;;;2.03;;
30062;SDS011;16889;67.864;24.990;2023-07-31T21:18:36;2.70;;;2.10;;
30062;SDS011;16889;67.864;24.990;2023-07-31T21:23:21;4.60;;;2.30;;
30062;SDS011;16889;67.864;24.990;2023-07-31T21:28:08;3.08;;;1.80;;
30062;SDS011;16889;67.864;24.990;2023-07-31T21:32:56;2.60;;;2.00;;
30062;SDS011;16889;67.864;24.990;2023-07-31T21:37:42;2.20;;;2.00;;
30062;SDS011;16889;67.864;24.990;2023-07-31T21:42:28;4.70;;;2.42;;
30062;SDS011;16889;67.864;24.990;2023-07-31T21:47:14;3.83;;;2.50;;
30062;SDS011;16889;67.864;24.990;2023-07-31T21:52:02;2.38;;;2.10;;
30062;SDS011;16889;67.864;24.990;2023-07-31T21:56:48;5.30;;;2.35;;
30062;SDS011;16889;67.864;24.990;2023-07-31T22:01:34;4.38;;;2.35;;
30062;SDS011;16889;67.864;24.990;2023-07-31T22:06:20;3.75;;;2.30;;
30062;SDS011;16889;67.864;24.990;2023-07-31T22:11:06;2.65;;;2.30;;
30062;SDS011;16889;67.864;24.990;2023-07-31T22:15:52;5.80;;;2.20;;
30062;SDS011;16889;67.864;24.990;2023-07-31T22:20:38;3.45;;;2.30;;
30062;SDS011;16889;67.864;24.990;2023-07-31T22:25:24;3.72;;;2.40;;
30062;SDS011;16889;67.864;24.990;2023-07-31T22:30:10;5.13;;;2.53;;
30062;SDS011;16889;67.864;24.990;2023-07-31T22:34:56;2.35;;;2.10;;
30062;SDS011;16889;67.864;24.990;2023-07-31T22:39:42;2.97;;;2.10;;
30062;SDS011;16889;67.864;24.990;2023-07-31T22:44:28;6.47;;;2.20;;
30062;SDS011;16889;67.864;24.990;2023-07-31T22:49:14;3.90;;;2.60;;
30062;SDS011;16889;67.864;24.990;2023-07-31T22:54:00;2.65;;;2.15;;
30062;SDS011;16889;67.864;24.990;2023-07-31T22:58:46;3.63;;;2.33;;
30062;SDS011;16889;67.864;24.990;2023-07-31T23:03:32;4.78;;;2.38;;
30062;SDS011;16889;67.864;24.990;2023-07-31T23:08:18;4.70;;;2.40;;
30062;SDS011;16889;67.864;24.990;2023-07-31T23:13:04;4.82;;;2.40;;
30062;SDS011;16889;67.864;24.990;2023-07-31T23:17:50;4.72;;;2.22;;
30062;SDS011;16889;67.864;24.990;2023-07-31T23:22:36;4.30;;;2.42;;
30062;SDS011;16889;67.864;24.990;2023-07-31T23:27:22;3.83;;;2.22;;
30062;SDS011;16889;67.864;24.990;2023-07-31T23:32:08;5.53;;;2.70;;
30062;SDS011;16889;67.864;24.990;2023-07-31T23:36:56;4.27;;;2.63;;
30062;SDS011;16889;67.864;24.990;2023-07-31T23:41:42;3.65;;;2.20;;
30062;SDS011;16889;67.864;24.990;2023-07-31T23:46:28;5.10;;;2.63;;
30062;SDS011;16889;67.864;24.990;2023-07-31T23:51:13;6.43;;;3.13;;
30062;SDS011;16889;67.864;24.990;2023-07-31T23:55:59;3.15;;;2.78;;
